Needville, Texas
Current Conditions -  °F | °C
As of 2:53 PM on Tuesday 21 Oct 2014 (Local Time) from KSGR Reporting Station
Clear Clear  
Wind Chill: 83°   Ceiling: Unl
Heat Index: 83°   Visibility: 10mi
Dew Point: 54°   Wind: 10mph
Humidity: 37%   Direction: 60°ENE
Pressure: 29.99"   Gusts: NA
Location:  29.4°N, 95.84°W
Report Text: KSGR 211953Z 06009KT 10SM CLR 28/12 A2999 RMK AO2 SLP155 T02830122
Loading
Personal Weather Stations






























Interactive Weather Map
Tropical Storm Tracking
New forecast layout! Learn more

10-Day Weather Forecast

Advertisements
Track Severe Weather on mobile